createdAt,value
2019-04-05T00:01:44.159Z,14.81
2019-04-05T00:04:12.646Z,14.71
2019-04-05T00:06:41.254Z,14.69
2019-04-05T00:09:09.738Z,14.67
2019-04-05T00:11:38.431Z,14.67
2019-04-05T00:14:06.980Z,14.59
2019-04-05T00:16:35.490Z,14.64
2019-04-05T00:19:06.303Z,14.56
2019-04-05T00:21:34.793Z,14.56
2019-04-05T00:24:03.273Z,14.53
2019-04-05T00:26:31.780Z,14.50
2019-04-05T00:29:00.258Z,14.43
2019-04-05T00:31:28.745Z,14.43
2019-04-05T00:33:57.220Z,14.43
2019-04-05T00:36:25.709Z,14.40
2019-04-05T00:38:54.184Z,14.42
2019-04-05T00:41:22.682Z,14.35
2019-04-05T00:43:51.198Z,14.28
2019-04-05T00:46:19.672Z,14.25
2019-04-05T00:48:48.141Z,14.21
2019-04-05T00:51:16.602Z,14.22
2019-04-05T00:53:45.094Z,14.22
2019-04-05T00:56:14.447Z,14.19
2019-04-05T00:58:42.937Z,14.12
2019-04-05T01:01:11.412Z,14.06
2019-04-05T01:03:39.904Z,14.10
2019-04-05T01:06:08.454Z,13.98
2019-04-05T01:08:36.950Z,14.02
2019-04-05T01:11:05.513Z,14.00
2019-04-05T01:13:37.855Z,13.92
2019-04-05T01:16:06.336Z,13.91
2019-04-05T01:18:34.855Z,13.93
2019-04-05T01:21:04.169Z,13.87
2019-04-05T01:23:33.588Z,13.88
2019-04-05T01:26:03.033Z,13.80
2019-04-05T01:28:31.799Z,13.74
2019-04-05T01:31:00.265Z,13.72
2019-04-05T01:33:28.891Z,13.72
2019-04-05T01:35:57.367Z,13.61
2019-04-05T01:38:25.852Z,13.56
2019-04-05T01:40:57.429Z,13.61
2019-04-05T01:43:25.935Z,13.58
2019-04-05T01:45:54.574Z,13.55
2019-04-05T01:48:23.064Z,13.46
2019-04-05T01:50:51.711Z,13.44
2019-04-05T01:53:20.221Z,13.45
2019-04-05T01:55:54.225Z,13.39
2019-04-05T01:58:22.730Z,13.37
2019-04-05T02:00:51.296Z,13.30
2019-04-05T02:03:19.835Z,13.36
2019-04-05T02:05:48.313Z,13.24
2019-04-05T02:08:16.846Z,13.22
2019-04-05T02:10:45.768Z,13.18
2019-04-05T02:13:14.353Z,13.12
2019-04-05T02:15:42.869Z,13.16
2019-04-05T02:18:11.453Z,13.17
2019-04-05T02:20:40.001Z,13.12
2019-04-05T02:23:08.583Z,13.09
2019-04-05T02:25:37.067Z,13.03
2019-04-05T02:28:05.575Z,12.95
2019-04-05T02:30:34.071Z,12.94
2019-04-05T02:33:02.694Z,12.95
2019-04-05T02:35:31.384Z,12.93
2019-04-05T02:37:59.929Z,12.88
2019-04-05T02:40:30.343Z,12.80
2019-04-05T02:43:02.163Z,12.82
2019-04-05T02:45:33.700Z,12.82
2019-04-05T02:48:05.105Z,12.79
2019-04-05T02:50:37.055Z,12.77
2019-04-05T02:53:07.695Z,12.71
2019-04-05T02:55:37.543Z,12.76
2019-04-05T02:58:08.705Z,12.68
2019-04-05T03:00:37.353Z,12.65
2019-04-05T03:03:06.927Z,12.64
2019-04-05T03:05:36.749Z,12.65
2019-04-05T03:08:06.382Z,12.59
2019-04-05T03:10:55.994Z,12.56
2019-04-05T03:13:32.717Z,12.52
2019-04-05T03:16:04.425Z,12.47
2019-04-05T03:18:35.979Z,12.48
2019-04-05T03:21:10.101Z,12.39
2019-04-05T03:23:41.654Z,12.43
2019-04-05T03:26:13.187Z,12.38
2019-04-05T03:28:44.068Z,12.40
2019-04-05T03:31:13.500Z,12.32
2019-04-05T03:33:42.076Z,12.35
2019-04-05T03:36:10.744Z,12.31
2019-04-05T03:38:39.552Z,12.31
2019-04-05T03:41:08.495Z,12.22
2019-04-05T03:43:37.367Z,12.20
2019-04-05T03:46:06.517Z,12.15
2019-04-05T03:48:35.597Z,12.15
2019-04-05T03:51:04.640Z,12.13
2019-04-05T03:53:33.263Z,12.13
2019-04-05T03:56:02.463Z,12.06
2019-04-05T03:58:30.993Z,12.01
2019-04-05T04:00:59.650Z,11.97
2019-04-05T04:03:28.784Z,12.01
2019-04-05T04:05:57.692Z,11.96
2019-04-05T04:08:26.368Z,11.93
2019-04-05T04:10:55.611Z,11.99
2019-04-05T04:13:24.339Z,11.95
2019-04-05T04:15:54.198Z,11.83
2019-04-05T04:18:23.899Z,11.82
2019-04-05T04:20:55.375Z,11.85
2019-04-05T04:23:26.928Z,11.84
2019-04-05T04:25:56.045Z,11.75
2019-04-05T04:28:25.505Z,11.75
2019-04-05T04:30:54.424Z,11.72
2019-04-05T04:33:23.700Z,11.72
2019-04-05T04:35:52.939Z,11.61
2019-04-05T04:38:21.699Z,11.55
2019-04-05T04:40:50.533Z,11.53
2019-04-05T04:43:19.481Z,11.56
2019-04-05T04:45:48.406Z,11.59
2019-04-05T04:48:17.402Z,11.59
2019-04-05T04:50:46.425Z,11.52
2019-04-05T04:53:15.640Z,11.50
2019-04-05T04:55:44.696Z,11.48
2019-04-05T04:58:13.320Z,11.53
2019-04-05T05:00:41.987Z,11.58
2019-04-05T05:03:10.915Z,11.61
2019-04-05T05:05:39.755Z,11.68
2019-04-05T05:08:09.073Z,11.67
2019-04-05T05:10:37.857Z,11.69
2019-04-05T05:13:06.409Z,11.73
2019-04-05T05:15:35.942Z,11.68
2019-04-05T05:18:05.070Z,11.71
2019-04-05T05:20:33.661Z,11.74
2019-04-05T05:23:02.218Z,11.71
2019-04-05T05:25:31.382Z,11.73
2019-04-05T05:28:00.304Z,11.73
2019-04-05T05:30:29.086Z,11.80
2019-04-05T05:32:57.845Z,11.82
2019-04-05T05:35:26.893Z,11.93
2019-04-05T05:37:55.533Z,11.96
2019-04-05T05:40:34.241Z,12.06
2019-04-05T05:42:54.388Z,12.21
2019-04-05T05:45:23.115Z,12.39
2019-04-05T05:47:52.583Z,12.41
2019-04-05T05:50:21.545Z,12.48
2019-04-05T05:52:50.257Z,12.29
2019-04-05T05:55:18.848Z,12.47
2019-04-05T05:57:47.351Z,12.50
2019-04-05T06:00:18.368Z,12.69
2019-04-05T06:02:48.429Z,12.71
2019-04-05T06:05:17.443Z,12.55
2019-04-05T06:07:45.930Z,12.62
2019-04-05T06:10:14.452Z,12.89
2019-04-05T06:12:42.932Z,13.04
2019-04-05T06:15:11.579Z,13.13
2019-04-05T06:17:42.975Z,12.90
2019-04-05T06:20:12.104Z,12.92
2019-04-05T06:22:40.582Z,12.97
2019-04-05T06:25:09.439Z,13.05
2019-04-05T06:27:37.924Z,13.19
2019-04-05T06:30:07.350Z,12.64
2019-04-05T06:32:35.808Z,12.97
2019-04-05T06:35:06.338Z,13.18
2019-04-05T06:37:34.819Z,12.78
2019-04-05T06:40:04.509Z,13.13
2019-04-05T06:42:32.978Z,13.25
2019-04-05T06:45:01.661Z,13.03
2019-04-05T06:47:30.166Z,12.78
2019-04-05T06:49:58.672Z,13.01
2019-04-05T06:52:27.153Z,13.21
2019-04-05T06:54:55.680Z,12.99
2019-04-05T06:57:24.239Z,13.22
2019-04-05T06:59:52.750Z,13.36
2019-04-05T07:02:21.920Z,13.36
2019-04-05T07:04:50.503Z,13.45
2019-04-05T07:07:19.055Z,13.65
2019-04-05T07:09:47.691Z,13.73
2019-04-05T07:12:16.159Z,13.80
2019-04-05T07:14:44.721Z,13.12
2019-04-05T07:17:13.221Z,13.45
2019-04-05T07:19:41.688Z,13.34
2019-04-05T07:22:10.168Z,13.49
2019-04-05T07:24:38.667Z,12.94
2019-04-05T07:27:07.163Z,12.73
2019-04-05T07:29:35.670Z,12.59
2019-04-05T07:32:04.344Z,11.90
2019-04-05T07:34:32.899Z,11.83
2019-04-05T07:37:01.441Z,11.63
2019-04-05T07:39:30.038Z,11.71
2019-04-05T07:41:58.612Z,11.46
2019-04-05T07:44:27.112Z,11.27
2019-04-05T07:46:55.622Z,11.37
2019-04-05T07:49:24.128Z,11.18
2019-04-05T07:51:52.635Z,10.98
2019-04-05T07:54:21.118Z,10.85
2019-04-05T07:56:49.620Z,10.77
2019-04-05T07:59:20.815Z,10.85
2019-04-05T08:01:48.354Z,10.72
2019-04-05T08:04:16.839Z,10.54
2019-04-05T08:06:48.270Z,10.83
2019-04-05T08:09:18.885Z,10.81
2019-04-05T08:11:47.885Z,10.74
2019-04-05T08:14:18.159Z,10.31
2019-04-05T08:16:46.876Z,10.09
2019-04-05T08:19:15.508Z,9.88
2019-04-05T08:21:44.047Z,10.06
2019-04-05T08:24:12.601Z,10.20
2019-04-05T08:26:41.115Z,10.21
2019-04-05T08:29:09.690Z,10.11
2019-04-05T08:31:38.188Z,10.25
2019-04-05T08:34:06.668Z,10.32
2019-04-05T08:36:35.185Z,9.96
2019-04-05T08:39:06.293Z,10.05
2019-04-05T08:41:34.892Z,10.02
2019-04-05T08:44:03.922Z,10.30
2019-04-05T08:46:32.418Z,10.07
2019-04-05T08:49:10.486Z,9.62
2019-04-05T08:51:31.139Z,9.97
2019-04-05T08:53:59.634Z,10.03
2019-04-05T08:56:28.207Z,9.76
2019-04-05T08:58:56.802Z,9.71
2019-04-05T09:01:25.301Z,9.53
2019-04-05T09:03:53.779Z,9.70
2019-04-05T09:06:22.303Z,9.88
2019-04-05T09:08:50.797Z,10.06
2019-04-05T09:11:19.304Z,10.18
2019-04-05T09:13:47.787Z,10.16
2019-04-05T09:16:16.289Z,10.25
2019-04-05T09:18:44.824Z,10.21
2019-04-05T09:21:13.330Z,10.41
2019-04-05T09:23:41.812Z,10.27
2019-04-05T09:26:10.309Z,10.19
2019-04-05T09:28:38.830Z,10.40
2019-04-05T09:31:07.431Z,10.54
2019-04-05T09:33:35.924Z,10.63
2019-04-05T09:36:04.643Z,10.65
2019-04-05T09:38:33.128Z,10.70
2019-04-05T09:41:01.677Z,10.66
2019-04-05T09:43:30.093Z,10.55
2019-04-05T09:45:58.605Z,10.57
2019-04-05T09:48:27.187Z,10.37
2019-04-05T09:50:55.727Z,10.46
2019-04-05T09:53:24.208Z,10.51
2019-04-05T09:55:52.720Z,10.62
2019-04-05T09:58:21.203Z,10.70
2019-04-05T10:00:49.719Z,10.41
2019-04-05T10:03:18.238Z,10.28
2019-04-05T10:05:46.737Z,10.61
2019-04-05T10:08:15.200Z,10.78
2019-04-05T10:10:43.698Z,10.65
2019-04-05T10:13:12.204Z,10.79
2019-04-05T10:15:40.720Z,10.76
2019-04-05T10:18:09.198Z,10.82
2019-04-05T10:20:39.097Z,10.93
2019-04-05T10:23:07.677Z,10.95
2019-04-05T10:25:36.544Z,11.00
2019-04-05T10:28:05.473Z,10.96
2019-04-05T10:30:33.956Z,10.80
2019-04-05T10:33:02.483Z,10.88
2019-04-05T10:35:31.002Z,10.93
2019-04-05T10:37:59.506Z,10.94
2019-04-05T10:40:28.053Z,10.88
2019-04-05T10:42:56.661Z,10.87
2019-04-05T10:45:25.320Z,10.87
2019-04-05T10:47:53.863Z,10.99
2019-04-05T10:50:22.771Z,10.94
2019-04-05T10:52:51.292Z,10.90
2019-04-05T10:55:19.763Z,11.09
2019-04-05T10:57:48.332Z,11.06
2019-04-05T11:00:18.854Z,11.10
2019-04-05T11:02:47.371Z,11.23
2019-04-05T11:05:16.114Z,11.17
2019-04-05T11:07:45.695Z,11.09
2019-04-05T11:10:15.115Z,11.07
2019-04-05T11:12:43.691Z,11.23
2019-04-05T11:15:15.069Z,11.10
2019-04-05T11:17:43.052Z,11.20
2019-04-05T11:20:21.151Z,11.20
2019-04-05T11:22:42.194Z,11.36
2019-04-05T11:25:11.517Z,11.43
2019-04-05T11:27:40.030Z,11.50
2019-04-05T11:30:09.760Z,11.60
2019-04-05T11:32:38.633Z,11.67
2019-04-05T11:35:08.564Z,11.81
2019-04-05T11:37:39.556Z,11.86
2019-04-05T11:40:08.750Z,12.00
2019-04-05T11:42:38.706Z,11.98
2019-04-05T11:45:09.331Z,11.99
2019-04-05T11:47:38.965Z,12.12
2019-04-05T11:50:11.359Z,12.27
2019-04-05T11:52:39.856Z,12.37
2019-04-05T11:55:08.809Z,12.42
2019-04-05T11:57:37.288Z,12.52
2019-04-05T12:00:14.999Z,12.57
2019-04-05T12:02:57.494Z,12.54
2019-04-05T12:05:27.181Z,12.63
2019-04-05T12:08:00.650Z,12.86
2019-04-05T12:10:26.171Z,13.03
2019-04-05T12:12:54.661Z,13.14
2019-04-05T12:15:23.146Z,13.20
2019-04-05T12:17:51.666Z,13.28
2019-04-05T12:20:20.499Z,13.40
2019-04-05T12:22:48.989Z,13.47
2019-04-05T12:25:17.475Z,13.54
2019-04-05T12:27:46.056Z,13.52
2019-04-05T12:30:19.491Z,13.57
2019-04-05T12:32:48.892Z,13.71
2019-04-05T12:35:21.324Z,13.74
2019-04-05T12:37:50.621Z,13.74
2019-04-05T12:40:18.722Z,13.95
2019-04-05T12:42:47.231Z,14.01
2019-04-05T12:45:16.417Z,13.96
2019-04-05T12:47:45.712Z,14.01
2019-04-05T12:50:15.725Z,13.95
2019-04-05T12:52:44.218Z,14.02
2019-04-05T12:55:13.146Z,14.05
2019-04-05T12:57:41.654Z,14.15
2019-04-05T13:00:15.986Z,14.23
2019-04-05T13:02:44.520Z,14.27
2019-04-05T13:05:13.377Z,14.35
2019-04-05T13:07:41.888Z,14.23
2019-04-05T13:10:12.055Z,14.39
2019-04-05T13:12:40.548Z,14.40
2019-04-05T13:15:12.884Z,14.34
2019-04-05T13:17:39.791Z,14.51
2019-04-05T13:20:08.637Z,14.40
2019-04-05T13:22:38.077Z,14.58
2019-04-05T13:25:10.735Z,14.71
2019-04-05T13:27:41.283Z,14.63
2019-04-05T13:30:08.387Z,14.59
2019-04-05T13:32:36.896Z,14.71
2019-04-05T13:35:06.521Z,14.80
2019-04-05T13:37:35.180Z,14.90
2019-04-05T13:40:06.364Z,14.75
2019-04-05T13:42:35.499Z,14.82
2019-04-05T13:45:06.426Z,14.90
2019-04-05T13:47:38.197Z,14.86
2019-04-05T13:50:11.031Z,14.89
2019-04-05T13:52:41.472Z,14.85
2019-04-05T13:55:11.331Z,14.67
2019-04-05T13:57:40.952Z,14.72
2019-04-05T14:00:10.643Z,14.85
2019-04-05T14:02:39.332Z,14.93
2019-04-05T14:05:08.146Z,14.90
2019-04-05T14:07:37.881Z,14.98
2019-04-05T14:10:10.500Z,15.02
2019-04-05T14:12:40.324Z,15.06
2019-04-05T14:15:11.343Z,15.12
2019-04-05T14:17:44.084Z,15.17
2019-04-05T14:20:10.425Z,15.17
2019-04-05T14:22:38.939Z,15.15
2019-04-05T14:25:08.889Z,15.19
2019-04-05T14:27:37.486Z,15.16
2019-04-05T14:30:07.399Z,15.22
2019-04-05T14:32:35.919Z,15.15
2019-04-05T14:35:07.914Z,15.02
2019-04-05T14:37:36.879Z,15.22
2019-04-05T14:40:07.220Z,15.26
2019-04-05T14:42:35.701Z,15.31
2019-04-05T14:45:06.632Z,15.41
2019-04-05T14:47:35.192Z,15.47
2019-04-05T14:50:07.139Z,15.47
2019-04-05T14:52:35.871Z,15.50
2019-04-05T14:55:04.923Z,15.34
2019-04-05T14:57:35.605Z,15.37
2019-04-05T15:00:05.147Z,15.42
2019-04-05T15:02:33.654Z,15.48
2019-04-05T15:05:02.174Z,15.33
2019-04-05T15:07:30.668Z,15.39
2019-04-05T15:09:59.163Z,15.44
2019-04-05T15:12:29.206Z,15.49
2019-04-05T15:14:57.921Z,15.55
2019-04-05T15:17:26.394Z,15.46
2019-04-05T15:19:54.873Z,15.49
2019-04-05T15:22:23.385Z,15.63
2019-04-05T15:24:51.934Z,15.62
2019-04-05T15:27:21.716Z,15.57
2019-04-05T15:29:50.672Z,15.59
2019-04-05T15:32:19.456Z,15.62
2019-04-05T15:34:48.017Z,15.66
2019-04-05T15:37:16.514Z,15.59
2019-04-05T15:39:45.034Z,15.67
2019-04-05T15:42:13.543Z,15.67
2019-04-05T15:44:42.077Z,15.63
2019-04-05T15:47:13.482Z,15.57
2019-04-05T15:49:40.833Z,15.54
2019-04-05T15:52:18.796Z,15.53
2019-04-05T15:54:43.246Z,15.50
2019-04-05T15:57:11.939Z,15.51
2019-04-05T15:59:40.476Z,15.54
2019-04-05T16:02:08.938Z,15.48
2019-04-05T16:04:37.452Z,15.51
2019-04-05T16:07:06.075Z,15.50
2019-04-05T16:09:34.571Z,15.50
2019-04-05T16:12:03.123Z,15.54
2019-04-05T16:14:31.666Z,15.50
2019-04-05T16:17:00.177Z,15.46
2019-04-05T16:19:29.646Z,15.45
2019-04-05T16:21:58.165Z,15.48
2019-04-05T16:24:26.723Z,15.48
2019-04-05T16:26:55.219Z,15.36
2019-04-05T16:29:23.768Z,15.36
2019-04-05T16:31:52.233Z,15.40
2019-04-05T16:34:20.748Z,15.40
2019-04-05T16:36:49.281Z,15.29
2019-04-05T16:39:19.244Z,15.31
2019-04-05T16:41:47.729Z,15.27
2019-04-05T16:44:16.245Z,15.25
2019-04-05T16:46:44.758Z,15.18
2019-04-05T16:49:13.274Z,15.16
2019-04-05T16:51:41.859Z,15.16
2019-04-05T16:54:10.337Z,15.03
2019-04-05T16:56:38.873Z,15.12
2019-04-05T16:59:07.555Z,15.10
2019-04-05T17:01:36.085Z,15.01
2019-04-05T17:04:05.004Z,14.99
2019-04-05T17:06:33.557Z,14.93
2019-04-05T17:09:02.078Z,14.85
2019-04-05T17:11:30.574Z,14.87
2019-04-05T17:13:59.606Z,14.88
2019-04-05T17:16:28.245Z,14.81
2019-04-05T17:18:56.784Z,14.80
2019-04-05T17:21:25.266Z,14.78
2019-04-05T17:23:53.734Z,14.77
2019-04-05T17:26:22.278Z,14.75
2019-04-05T17:28:50.826Z,14.65
2019-04-05T17:31:19.336Z,14.61
2019-04-05T17:33:47.859Z,14.53
2019-04-05T17:36:16.342Z,14.51
2019-04-05T17:38:44.827Z,14.46
2019-04-05T17:41:13.332Z,14.43
2019-04-05T17:43:41.833Z,14.39
2019-04-05T17:46:10.348Z,14.32
2019-04-05T17:48:38.827Z,14.31
2019-04-05T17:51:07.344Z,14.31
2019-04-05T17:53:35.913Z,14.25
2019-04-05T17:56:04.552Z,14.26
2019-04-05T17:58:33.498Z,14.19
2019-04-05T18:01:02.023Z,14.16
2019-04-05T18:03:30.513Z,14.18
2019-04-05T18:05:59.029Z,14.06
2019-04-05T18:08:27.527Z,14.08
2019-04-05T18:10:56.407Z,14.10
2019-04-05T18:13:24.894Z,14.04
2019-04-05T18:15:53.510Z,14.05
2019-04-05T18:18:22.011Z,13.90
2019-04-05T18:20:50.500Z,13.87
2019-04-05T18:23:25.018Z,13.78
2019-04-05T18:25:49.243Z,13.80
2019-04-05T18:28:17.763Z,13.79
2019-04-05T18:30:47.101Z,13.72
2019-04-05T18:33:15.599Z,13.71
2019-04-05T18:35:44.135Z,13.64
2019-04-05T18:38:12.606Z,13.66
2019-04-05T18:40:41.134Z,13.53
2019-04-05T18:43:09.610Z,13.57
2019-04-05T18:45:38.153Z,13.55
2019-04-05T18:48:06.650Z,13.50
2019-04-05T18:50:35.138Z,13.56
2019-04-05T18:53:03.620Z,13.56
2019-04-05T18:55:32.133Z,13.45
2019-04-05T18:58:00.613Z,13.46
2019-04-05T19:00:29.299Z,13.46
2019-04-05T19:02:57.784Z,13.48
2019-04-05T19:05:26.293Z,13.36
2019-04-05T19:07:54.845Z,13.44
2019-04-05T19:10:36.261Z,13.43
2019-04-05T19:12:53.726Z,13.43
2019-04-05T19:15:22.262Z,13.46
2019-04-05T19:17:50.787Z,13.44
2019-04-05T19:20:19.355Z,13.38
2019-04-05T19:22:47.853Z,13.41
2019-04-05T19:25:16.372Z,13.45
2019-04-05T19:27:44.865Z,13.45
2019-04-05T19:50:16.251Z,13.27
2019-04-05T19:52:44.732Z,13.24
2019-04-05T19:55:14.786Z,13.18
2019-04-05T19:57:43.292Z,13.16
2019-04-05T20:00:12.447Z,13.04
2019-04-05T20:02:40.993Z,13.09
2019-04-05T20:05:09.742Z,13.04
2019-04-05T20:07:38.224Z,13.05
2019-04-05T20:10:07.075Z,13.01
2019-04-05T20:12:35.566Z,13.02
2019-04-05T20:15:06.377Z,12.95
2019-04-05T20:17:34.890Z,12.94
2019-04-05T20:20:05.334Z,12.91
2019-04-05T20:22:33.820Z,12.84
2019-04-05T20:25:02.322Z,12.88
2019-04-05T20:27:30.834Z,12.81
2019-04-05T20:29:59.333Z,12.81
2019-04-05T20:32:27.843Z,12.79
2019-04-05T20:34:56.337Z,12.80
2019-04-05T20:37:24.847Z,12.79
2019-04-05T20:39:53.325Z,12.74
2019-04-05T20:42:21.823Z,12.76
2019-04-05T20:44:50.300Z,12.77
2019-04-05T20:47:19.219Z,12.72
2019-04-05T20:49:47.700Z,12.77
2019-04-05T20:52:16.214Z,12.76
2019-04-05T20:54:44.718Z,12.73
2019-04-05T20:57:13.229Z,12.74
2019-04-05T20:59:41.723Z,12.71
2019-04-05T21:02:10.219Z,12.72
2019-04-05T21:04:38.730Z,12.69
2019-04-05T21:07:07.239Z,12.69
2019-04-05T21:09:35.773Z,12.69
2019-04-05T21:12:04.330Z,12.74
2019-04-05T21:14:32.832Z,12.65
2019-04-05T21:17:01.343Z,12.67
2019-04-05T21:19:29.842Z,12.66
2019-04-05T21:21:58.362Z,12.65
2019-04-05T21:24:35.710Z,12.64
2019-04-05T21:26:57.080Z,12.62
2019-04-05T21:29:25.562Z,12.61
2019-04-05T21:31:54.090Z,12.61
2019-04-05T21:34:22.603Z,12.62
2019-04-05T21:36:51.102Z,12.56
2019-04-05T21:39:19.588Z,12.57
2019-04-05T21:41:48.077Z,12.55
2019-04-05T21:44:16.598Z,12.50
2019-04-05T21:46:45.115Z,12.51
2019-04-05T21:49:13.596Z,12.47
2019-04-05T21:51:42.109Z,12.39
2019-04-05T21:54:10.566Z,12.38
2019-04-05T21:56:39.087Z,12.44
2019-04-05T21:59:07.599Z,12.39
2019-04-05T22:01:36.184Z,12.39
2019-04-05T22:04:04.923Z,12.32
2019-04-05T22:06:33.408Z,12.36
2019-04-05T22:09:01.940Z,12.30
2019-04-05T22:11:30.441Z,12.25
2019-04-05T22:13:58.942Z,12.14
2019-04-05T22:16:27.431Z,12.16
2019-04-05T22:18:55.911Z,12.12
2019-04-05T22:21:24.426Z,12.02
2019-04-05T22:23:52.903Z,12.12
2019-04-05T22:26:21.433Z,12.16
2019-04-05T22:28:49.933Z,12.13
2019-04-05T22:31:18.447Z,12.12
2019-04-05T22:33:46.957Z,12.14
2019-04-05T22:36:15.485Z,12.13
2019-04-05T22:38:43.960Z,12.15
2019-04-05T22:41:12.471Z,12.12
2019-04-05T22:43:40.980Z,12.05
2019-04-05T22:46:09.509Z,12.08
2019-04-05T22:48:37.985Z,12.09
2019-04-05T22:51:06.507Z,12.13
2019-04-05T22:53:35.023Z,12.13
2019-04-05T22:56:03.533Z,12.12
2019-04-05T22:58:32.042Z,12.13
2019-04-05T23:01:00.556Z,12.14
2019-04-05T23:03:29.054Z,12.15
2019-04-05T23:05:57.527Z,12.16
2019-04-05T23:08:26.052Z,12.15
2019-04-05T23:10:54.588Z,12.19
2019-04-05T23:13:23.119Z,12.18
2019-04-05T23:15:51.603Z,12.16
2019-04-05T23:18:20.091Z,12.19
2019-04-05T23:20:48.580Z,12.20
2019-04-05T23:23:17.097Z,12.22
2019-04-05T23:25:45.575Z,12.21
2019-04-05T23:28:14.097Z,12.21
2019-04-05T23:30:42.580Z,12.22
2019-04-05T23:33:11.284Z,12.17
2019-04-05T23:35:39.803Z,12.16
2019-04-05T23:38:08.271Z,12.07
2019-04-05T23:40:36.814Z,12.12
2019-04-05T23:43:05.333Z,12.03
2019-04-05T23:45:33.821Z,12.07
2019-04-05T23:48:02.320Z,12.05
2019-04-05T23:50:30.820Z,12.02
2019-04-05T23:52:59.361Z,11.97
2019-04-05T23:55:33.218Z,11.92
2019-04-05T23:57:59.661Z,11.90
